sensor_id;sensor_type;location;lat;lon;timestamp;temperature;humidity
13256;DHT22;37913;48.370;10.930;2023-04-15T00:00:10;5.90;1.00
13256;DHT22;37913;48.370;10.930;2023-04-15T00:02:38;5.90;1.00
13256;DHT22;37913;48.370;10.930;2023-04-15T00:05:07;5.90;1.00
13256;DHT22;37913;48.370;10.930;2023-04-15T00:07:34;5.80;1.00
13256;DHT22;37913;48.370;10.930;2023-04-15T00:10:01;5.90;1.00
13256;DHT22;37913;48.370;10.930;2023-04-15T00:12:29;5.80;1.00
13256;DHT22;37913;48.370;10.930;2023-04-15T00:14:56;5.80;1.00
13256;DHT22;37913;48.370;10.930;2023-04-15T00:17:23;5.80;1.00
13256;DHT22;37913;48.370;10.930;2023-04-15T00:19:51;5.70;1.00
13256;DHT22;37913;48.370;10.930;2023-04-15T00:22:19;5.70;86.70
13256;DHT22;37913;48.370;10.930;2023-04-15T00:24:46;5.60;53.80
13256;DHT22;37913;48.370;10.930;2023-04-15T00:27:13;5.80;99.90
13256;DHT22;37913;48.370;10.930;2023-04-15T00:29:40;5.60;99.90
13256;DHT22;37913;48.370;10.930;2023-04-15T00:32:07;5.50;99.90
13256;DHT22;37913;48.370;10.930;2023-04-15T00:34:33;5.60;99.90
13256;DHT22;37913;48.370;10.930;2023-04-15T00:37:01;5.60;99.90
13256;DHT22;37913;48.370;10.930;2023-04-15T00:39:29;5.60;99.90
13256;DHT22;37913;48.370;10.930;2023-04-15T00:41:57;5.50;99.90
13256;DHT22;37913;48.370;10.930;2023-04-15T00:44:24;5.40;99.90
13256;DHT22;37913;48.370;10.930;2023-04-15T00:46:51;5.30;99.90
13256;DHT22;37913;48.370;10.930;2023-04-15T00:49:18;5.30;99.90
13256;DHT22;37913;48.370;10.930;2023-04-15T00:51:45;5.30;99.90
13256;DHT22;37913;48.370;10.930;2023-04-15T00:54:12;5.30;99.90
13256;DHT22;37913;48.370;10.930;2023-04-15T00:56:41;5.20;1.00
13256;DHT22;37913;48.370;10.930;2023-04-15T00:59:08;5.50;1.00
13256;DHT22;37913;48.370;10.930;2023-04-15T01:01:35;5.20;1.00
13256;DHT22;37913;48.370;10.930;2023-04-15T01:04:03;5.10;1.00
13256;DHT22;37913;48.370;10.930;2023-04-15T01:06:31;5.20;1.00
13256;DHT22;37913;48.370;10.930;2023-04-15T01:08:58;5.20;1.00
13256;DHT22;37913;48.370;10.930;2023-04-15T01:11:26;5.30;1.00
13256;DHT22;37913;48.370;10.930;2023-04-15T01:13:57;5.30;1.00
13256;DHT22;37913;48.370;10.930;2023-04-15T01:16:28;5.20;1.00
13256;DHT22;37913;48.370;10.930;2023-04-15T01:18:55;5.20;1.00
13256;DHT22;37913;48.370;10.930;2023-04-15T01:21:22;5.60;1.00
13256;DHT22;37913;48.370;10.930;2023-04-15T01:23:50;5.10;1.00
13256;DHT22;37913;48.370;10.930;2023-04-15T01:26:20;5.10;1.00
13256;DHT22;37913;48.370;10.930;2023-04-15T01:28:47;5.10;1.00
13256;DHT22;37913;48.370;10.930;2023-04-15T01:31:15;5.00;1.00
13256;DHT22;37913;48.370;10.930;2023-04-15T01:33:42;5.00;1.00
13256;DHT22;37913;48.370;10.930;2023-04-15T01:36:10;4.80;1.00
13256;DHT22;37913;48.370;10.930;2023-04-15T01:38:37;4.70;1.00
13256;DHT22;37913;48.370;10.930;2023-04-15T01:41:04;4.70;1.00
13256;DHT22;37913;48.370;10.930;2023-04-15T01:43:34;4.90;1.00
13256;DHT22;37913;48.370;10.930;2023-04-15T01:46:01;4.70;1.00
13256;DHT22;37913;48.370;10.930;2023-04-15T01:48:28;4.90;1.00
13256;DHT22;37913;48.370;10.930;2023-04-15T01:50:55;4.60;1.00
13256;DHT22;37913;48.370;10.930;2023-04-15T01:53:23;4.60;1.00
13256;DHT22;37913;48.370;10.930;2023-04-15T01:55:50;4.60;1.00
13256;DHT22;37913;48.370;10.930;2023-04-15T01:58:18;4.70;1.00
13256;DHT22;37913;48.370;10.930;2023-04-15T02:00:46;4.70;1.00
13256;DHT22;37913;48.370;10.930;2023-04-15T02:03:13;4.80;1.00
13256;DHT22;37913;48.370;10.930;2023-04-15T02:05:40;4.90;1.00
13256;DHT22;37913;48.370;10.930;2023-04-15T02:08:08;5.00;1.00
13256;DHT22;37913;48.370;10.930;2023-04-15T02:10:35;5.00;1.00
13256;DHT22;37913;48.370;10.930;2023-04-15T02:13:02;5.00;1.00
13256;DHT22;37913;48.370;10.930;2023-04-15T02:15:29;5.00;1.00
13256;DHT22;37913;48.370;10.930;2023-04-15T02:17:57;5.00;99.90
13256;DHT22;37913;48.370;10.930;2023-04-15T02:20:25;5.10;99.90
13256;DHT22;37913;48.370;10.930;2023-04-15T02:22:52;5.10;99.90
13256;DHT22;37913;48.370;10.930;2023-04-15T02:25:19;5.00;99.90
13256;DHT22;37913;48.370;10.930;2023-04-15T02:27:46;5.10;99.90
13256;DHT22;37913;48.370;10.930;2023-04-15T02:30:13;5.10;99.90
13256;DHT22;37913;48.370;10.930;2023-04-15T02:32:40;5.00;99.90
13256;DHT22;37913;48.370;10.930;2023-04-15T02:35:10;5.00;99.90
13256;DHT22;37913;48.370;10.930;2023-04-15T02:37:37;5.00;99.90
13256;DHT22;37913;48.370;10.930;2023-04-15T02:40:08;5.20;99.90
13256;DHT22;37913;48.370;10.930;2023-04-15T02:42:37;5.00;99.90
13256;DHT22;37913;48.370;10.930;2023-04-15T02:45:05;5.00;99.90
13256;DHT22;37913;48.370;10.930;2023-04-15T02:47:32;5.00;99.90
13256;DHT22;37913;48.370;10.930;2023-04-15T02:49:59;5.00;99.90
13256;DHT22;37913;48.370;10.930;2023-04-15T02:52:28;5.20;99.90
13256;DHT22;37913;48.370;10.930;2023-04-15T02:54:55;5.10;99.90
13256;DHT22;37913;48.370;10.930;2023-04-15T02:57:25;5.10;99.90
13256;DHT22;37913;48.370;10.930;2023-04-15T02:59:53;5.10;99.90
13256;DHT22;37913;48.370;10.930;2023-04-15T03:02:20;5.20;56.10
13256;DHT22;37913;48.370;10.930;2023-04-15T03:04:47;5.20;1.00
13256;DHT22;37913;48.370;10.930;2023-04-15T03:07:14;5.20;1.00
13256;DHT22;37913;48.370;10.930;2023-04-15T03:09:42;5.20;1.00
13256;DHT22;37913;48.370;10.930;2023-04-15T03:12:09;5.20;1.00
13256;DHT22;37913;48.370;10.930;2023-04-15T03:14:36;5.20;1.00
13256;DHT22;37913;48.370;10.930;2023-04-15T03:17:04;5.20;1.00
13256;DHT22;37913;48.370;10.930;2023-04-15T03:19:31;5.30;1.00
13256;DHT22;37913;48.370;10.930;2023-04-15T03:21:58;5.30;1.00
13256;DHT22;37913;48.370;10.930;2023-04-15T03:24:25;5.30;1.00
13256;DHT22;37913;48.370;10.930;2023-04-15T03:26:55;5.30;1.00
13256;DHT22;37913;48.370;10.930;2023-04-15T03:29:22;5.30;1.00
13256;DHT22;37913;48.370;10.930;2023-04-15T03:31:51;5.80;1.00
13256;DHT22;37913;48.370;10.930;2023-04-15T03:34:19;5.30;99.90
13256;DHT22;37913;48.370;10.930;2023-04-15T03:36:46;5.30;99.90
13256;DHT22;37913;48.370;10.930;2023-04-15T03:39:12;5.20;99.90
13256;DHT22;37913;48.370;10.930;2023-04-15T03:41:39;5.20;99.90
13256;DHT22;37913;48.370;10.930;2023-04-15T03:44:08;5.20;99.90
13256;DHT22;37913;48.370;10.930;2023-04-15T03:46:35;5.20;99.90
13256;DHT22;37913;48.370;10.930;2023-04-15T03:49:01;5.20;91.60
13256;DHT22;37913;48.370;10.930;2023-04-15T03:51:28;5.20;99.90
13256;DHT22;37913;48.370;10.930;2023-04-15T03:53:55;5.20;1.00
13256;DHT22;37913;48.370;10.930;2023-04-15T03:56:23;5.20;1.00
13256;DHT22;37913;48.370;10.930;2023-04-15T03:58:50;5.10;1.00
13256;DHT22;37913;48.370;10.930;2023-04-15T04:01:18;5.10;1.00
13256;DHT22;37913;48.370;10.930;2023-04-15T04:03:45;5.00;4.60
13256;DHT22;37913;48.370;10.930;2023-04-15T04:06:12;5.00;92.00
13256;DHT22;37913;48.370;10.930;2023-04-15T04:08:40;5.00;1.00
13256;DHT22;37913;48.370;10.930;2023-04-15T04:11:07;5.00;1.00
13256;DHT22;37913;48.370;10.930;2023-04-15T04:13:34;5.00;1.00
13256;DHT22;37913;48.370;10.930;2023-04-15T04:16:02;5.10;1.00
13256;DHT22;37913;48.370;10.930;2023-04-15T04:18:31;5.10;1.00
13256;DHT22;37913;48.370;10.930;2023-04-15T04:20:58;5.10;1.00
13256;DHT22;37913;48.370;10.930;2023-04-15T04:23:25;5.20;1.00
13256;DHT22;37913;48.370;10.930;2023-04-15T04:25:52;5.10;1.00
13256;DHT22;37913;48.370;10.930;2023-04-15T04:28:19;5.20;52.50
13256;DHT22;37913;48.370;10.930;2023-04-15T04:30:52;5.20;1.00
13256;DHT22;37913;48.370;10.930;2023-04-15T04:33:19;5.30;99.90
13256;DHT22;37913;48.370;10.930;2023-04-15T04:35:47;5.20;99.90
13256;DHT22;37913;48.370;10.930;2023-04-15T04:38:14;5.10;1.00
13256;DHT22;37913;48.370;10.930;2023-04-15T04:40:41;5.10;99.90
13256;DHT22;37913;48.370;10.930;2023-04-15T04:43:08;5.10;1.00
13256;DHT22;37913;48.370;10.930;2023-04-15T04:45:35;5.10;1.00
13256;DHT22;37913;48.370;10.930;2023-04-15T04:48:02;5.10;99.90
13256;DHT22;37913;48.370;10.930;2023-04-15T04:50:34;5.10;99.90
13256;DHT22;37913;48.370;10.930;2023-04-15T04:53:02;5.10;1.00
13256;DHT22;37913;48.370;10.930;2023-04-15T04:55:29;5.70;1.00
13256;DHT22;37913;48.370;10.930;2023-04-15T04:57:57;5.20;99.90
13256;DHT22;37913;48.370;10.930;2023-04-15T05:00:23;5.20;1.00
13256;DHT22;37913;48.370;10.930;2023-04-15T05:02:51;5.30;1.00
13256;DHT22;37913;48.370;10.930;2023-04-15T05:05:18;5.30;1.00
13256;DHT22;37913;48.370;10.930;2023-04-15T05:07:45;5.40;99.90
13256;DHT22;37913;48.370;10.930;2023-04-15T05:10:15;5.50;1.00
13256;DHT22;37913;48.370;10.930;2023-04-15T05:12:42;5.60;99.90
13256;DHT22;37913;48.370;10.930;2023-04-15T05:15:10;5.80;99.90
13256;DHT22;37913;48.370;10.930;2023-04-15T05:17:37;5.90;1.00
13256;DHT22;37913;48.370;10.930;2023-04-15T05:20:04;6.10;99.90
13256;DHT22;37913;48.370;10.930;2023-04-15T05:22:32;6.20;1.00
13256;DHT22;37913;48.370;10.930;2023-04-15T05:24:58;6.30;99.90
13256;DHT22;37913;48.370;10.930;2023-04-15T05:27:27;6.30;1.00
13256;DHT22;37913;48.370;10.930;2023-04-15T05:29:54;6.40;1.00
13256;DHT22;37913;48.370;10.930;2023-04-15T05:32:21;6.40;1.00
13256;DHT22;37913;48.370;10.930;2023-04-15T05:34:48;6.40;1.00
13256;DHT22;37913;48.370;10.930;2023-04-15T05:37:15;6.30;1.00
13256;DHT22;37913;48.370;10.930;2023-04-15T05:39:42;6.40;1.00
13256;DHT22;37913;48.370;10.930;2023-04-15T05:42:09;6.30;1.00
13256;DHT22;37913;48.370;10.930;2023-04-15T05:44:37;6.10;1.00
13256;DHT22;37913;48.370;10.930;2023-04-15T05:47:04;6.10;1.00
13256;DHT22;37913;48.370;10.930;2023-04-15T05:49:32;6.00;1.00
13256;DHT22;37913;48.370;10.930;2023-04-15T05:51:59;6.00;1.00
13256;DHT22;37913;48.370;10.930;2023-04-15T05:54:26;6.00;1.00
13256;DHT22;37913;48.370;10.930;2023-04-15T05:56:53;5.90;99.90
13256;DHT22;37913;48.370;10.930;2023-04-15T05:59:20;6.00;99.90
13256;DHT22;37913;48.370;10.930;2023-04-15T06:01:49;6.00;99.90
13256;DHT22;37913;48.370;10.930;2023-04-15T06:04:16;6.00;99.90
13256;DHT22;37913;48.370;10.930;2023-04-15T06:06:44;6.10;99.90
13256;DHT22;37913;48.370;10.930;2023-04-15T06:09:10;6.20;99.90
13256;DHT22;37913;48.370;10.930;2023-04-15T06:11:37;5.40;99.90
13256;DHT22;37913;48.370;10.930;2023-04-15T06:14:06;6.20;99.90
13256;DHT22;37913;48.370;10.930;2023-04-15T06:16:32;6.20;99.90
13256;DHT22;37913;48.370;10.930;2023-04-15T06:19:02;6.30;99.90
13256;DHT22;37913;48.370;10.930;2023-04-15T06:21:29;6.40;99.90
13256;DHT22;37913;48.370;10.930;2023-04-15T06:23:58;6.50;1.00
13256;DHT22;37913;48.370;10.930;2023-04-15T06:26:25;6.60;1.00
13256;DHT22;37913;48.370;10.930;2023-04-15T06:28:52;6.50;1.00
13256;DHT22;37913;48.370;10.930;2023-04-15T06:31:20;6.60;99.90
13256;DHT22;37913;48.370;10.930;2023-04-15T06:33:47;6.70;1.00
13256;DHT22;37913;48.370;10.930;2023-04-15T06:36:16;6.80;99.90
13256;DHT22;37913;48.370;10.930;2023-04-15T06:38:43;6.90;99.90
13256;DHT22;37913;48.370;10.930;2023-04-15T06:41:10;7.00;99.90
13256;DHT22;37913;48.370;10.930;2023-04-15T06:43:37;7.10;99.90
13256;DHT22;37913;48.370;10.930;2023-04-15T06:46:04;7.30;99.90
13256;DHT22;37913;48.370;10.930;2023-04-15T06:48:31;7.20;1.00
13256;DHT22;37913;48.370;10.930;2023-04-15T06:50:58;7.40;1.00
13256;DHT22;37913;48.370;10.930;2023-04-15T06:53:26;7.30;1.00
13256;DHT22;37913;48.370;10.930;2023-04-15T06:55:53;7.40;1.00
13256;DHT22;37913;48.370;10.930;2023-04-15T06:58:20;7.70;1.00
13256;DHT22;37913;48.370;10.930;2023-04-15T07:00:47;7.70;1.00
13256;DHT22;37913;48.370;10.930;2023-04-15T07:03:14;7.70;99.90
13256;DHT22;37913;48.370;10.930;2023-04-15T07:05:41;7.90;99.90
13256;DHT22;37913;48.370;10.930;2023-04-15T07:08:08;7.90;99.90
13256;DHT22;37913;48.370;10.930;2023-04-15T07:10:36;7.90;99.90
13256;DHT22;37913;48.370;10.930;2023-04-15T07:13:03;8.10;99.90
13256;DHT22;37913;48.370;10.930;2023-04-15T07:15:32;8.10;99.90
13256;DHT22;37913;48.370;10.930;2023-04-15T07:17:59;8.30;99.90
13256;DHT22;37913;48.370;10.930;2023-04-15T07:20:26;8.20;99.90
13256;DHT22;37913;48.370;10.930;2023-04-15T07:22:53;8.20;99.90
13256;DHT22;37913;48.370;10.930;2023-04-15T07:25:20;8.20;99.90
13256;DHT22;37913;48.370;10.930;2023-04-15T07:27:48;8.20;99.90
13256;DHT22;37913;48.370;10.930;2023-04-15T07:30:16;8.30;99.90
13256;DHT22;37913;48.370;10.930;2023-04-15T07:32:43;8.10;99.90
13256;DHT22;37913;48.370;10.930;2023-04-15T07:35:10;8.40;99.90
13256;DHT22;37913;48.370;10.930;2023-04-15T07:37:38;8.50;99.90
13256;DHT22;37913;48.370;10.930;2023-04-15T07:40:07;8.70;99.90
13256;DHT22;37913;48.370;10.930;2023-04-15T07:42:35;9.10;99.90
13256;DHT22;37913;48.370;10.930;2023-04-15T07:45:05;9.50;99.90
13256;DHT22;37913;48.370;10.930;2023-04-15T07:47:32;9.80;99.90
13256;DHT22;37913;48.370;10.930;2023-04-15T07:49:59;9.80;99.90
13256;DHT22;37913;48.370;10.930;2023-04-15T07:52:26;9.90;99.90
13256;DHT22;37913;48.370;10.930;2023-04-15T07:54:53;10.10;99.90
13256;DHT22;37913;48.370;10.930;2023-04-15T07:57:20;10.20;99.90
13256;DHT22;37913;48.370;10.930;2023-04-15T07:59:47;10.20;99.90
13256;DHT22;37913;48.370;10.930;2023-04-15T08:02:16;10.30;99.90
13256;DHT22;37913;48.370;10.930;2023-04-15T08:04:42;10.10;99.90
13256;DHT22;37913;48.370;10.930;2023-04-15T08:07:09;10.40;99.90
13256;DHT22;37913;48.370;10.930;2023-04-15T08:09:36;10.50;99.90
13256;DHT22;37913;48.370;10.930;2023-04-15T08:12:04;10.80;99.90
13256;DHT22;37913;48.370;10.930;2023-04-15T08:14:32;11.00;99.90
13256;DHT22;37913;48.370;10.930;2023-04-15T08:17:00;11.50;99.90
13256;DHT22;37913;48.370;10.930;2023-04-15T08:19:29;11.70;99.90
13256;DHT22;37913;48.370;10.930;2023-04-15T08:21:56;11.70;99.90
13256;DHT22;37913;48.370;10.930;2023-04-15T08:24:23;11.80;99.90
13256;DHT22;37913;48.370;10.930;2023-04-15T08:26:51;12.10;99.90
13256;DHT22;37913;48.370;10.930;2023-04-15T08:29:18;12.20;99.90
13256;DHT22;37913;48.370;10.930;2023-04-15T08:31:46;12.20;99.90
13256;DHT22;37913;48.370;10.930;2023-04-15T08:34:13;12.00;99.90
13256;DHT22;37913;48.370;10.930;2023-04-15T08:36:41;12.00;99.90
13256;DHT22;37913;48.370;10.930;2023-04-15T08:39:08;12.00;99.90
13256;DHT22;37913;48.370;10.930;2023-04-15T08:41:39;12.20;99.90
13256;DHT22;37913;48.370;10.930;2023-04-15T08:44:06;11.80;99.90
13256;DHT22;37913;48.370;10.930;2023-04-15T08:46:33;11.00;99.90
13256;DHT22;37913;48.370;10.930;2023-04-15T08:49:03;10.70;99.90
13256;DHT22;37913;48.370;10.930;2023-04-15T08:51:34;10.80;99.90
13256;DHT22;37913;48.370;10.930;2023-04-15T08:54:03;11.00;99.90
13256;DHT22;37913;48.370;10.930;2023-04-15T08:56:30;11.10;99.90
13256;DHT22;37913;48.370;10.930;2023-04-15T08:58:58;11.10;99.90
13256;DHT22;37913;48.370;10.930;2023-04-15T09:01:26;10.50;99.90
13256;DHT22;37913;48.370;10.930;2023-04-15T09:03:53;10.30;99.90
13256;DHT22;37913;48.370;10.930;2023-04-15T09:06:20;10.00;99.90
13256;DHT22;37913;48.370;10.930;2023-04-15T09:08:48;10.40;99.90
13256;DHT22;37913;48.370;10.930;2023-04-15T09:11:18;10.50;99.90
13256;DHT22;37913;48.370;10.930;2023-04-15T09:13:45;10.40;99.90
13256;DHT22;37913;48.370;10.930;2023-04-15T09:16:12;11.10;99.90
13256;DHT22;37913;48.370;10.930;2023-04-15T09:18:40;11.20;99.90
13256;DHT22;37913;48.370;10.930;2023-04-15T09:21:08;10.80;99.90
13256;DHT22;37913;48.370;10.930;2023-04-15T09:23:36;10.90;99.90
13256;DHT22;37913;48.370;10.930;2023-04-15T09:26:04;11.00;99.90
13256;DHT22;37913;48.370;10.930;2023-04-15T09:28:33;10.40;99.90
13256;DHT22;37913;48.370;10.930;2023-04-15T09:31:06;10.60;99.90
13256;DHT22;37913;48.370;10.930;2023-04-15T09:33:34;11.00;99.90
13256;DHT22;37913;48.370;10.930;2023-04-15T09:36:03;10.50;99.90
13256;DHT22;37913;48.370;10.930;2023-04-15T09:38:31;10.80;99.90
13256;DHT22;37913;48.370;10.930;2023-04-15T09:40:58;11.10;99.90
13256;DHT22;37913;48.370;10.930;2023-04-15T09:43:38;11.60;99.90
13256;DHT22;37913;48.370;10.930;2023-04-15T09:46:05;12.00;99.90
13256;DHT22;37913;48.370;10.930;2023-04-15T09:48:32;12.40;99.90
13256;DHT22;37913;48.370;10.930;2023-04-15T09:51:00;12.80;99.90
13256;DHT22;37913;48.370;10.930;2023-04-15T09:53:27;13.20;99.90
13256;DHT22;37913;48.370;10.930;2023-04-15T09:55:55;13.70;99.90
13256;DHT22;37913;48.370;10.930;2023-04-15T09:58:24;14.00;99.90
13256;DHT22;37913;48.370;10.930;2023-04-15T10:00:54;14.40;99.90
13256;DHT22;37913;48.370;10.930;2023-04-15T10:03:23;15.00;99.90
13256;DHT22;37913;48.370;10.930;2023-04-15T10:05:52;15.50;99.90
13256;DHT22;37913;48.370;10.930;2023-04-15T10:08:21;15.80;99.90
13256;DHT22;37913;48.370;10.930;2023-04-15T10:10:49;16.50;99.90
13256;DHT22;37913;48.370;10.930;2023-04-15T10:13:18;16.90;99.40
13256;DHT22;37913;48.370;10.930;2023-04-15T10:15:50;17.80;97.20
13256;DHT22;37913;48.370;10.930;2023-04-15T10:18:20;18.00;95.30
13256;DHT22;37913;48.370;10.930;2023-04-15T10:20:49;19.60;94.40
13256;DHT22;37913;48.370;10.930;2023-04-15T10:23:17;20.60;91.70
13256;DHT22;37913;48.370;10.930;2023-04-15T10:25:45;20.60;90.00
13256;DHT22;37913;48.370;10.930;2023-04-15T10:28:14;20.90;87.00
13256;DHT22;37913;48.370;10.930;2023-04-15T10:30:42;20.30;88.00
13256;DHT22;37913;48.370;10.930;2023-04-15T10:33:10;19.70;88.10
13256;DHT22;37913;48.370;10.930;2023-04-15T10:35:38;18.80;90.00
13256;DHT22;37913;48.370;10.930;2023-04-15T10:38:36;18.30;91.00
13256;DHT22;37913;48.370;10.930;2023-04-15T10:41:15;17.80;91.40
13256;DHT22;37913;48.370;10.930;2023-04-15T10:43:50;17.20;92.10
13256;DHT22;37913;48.370;10.930;2023-04-15T10:46:20;16.40;92.90
13256;DHT22;37913;48.370;10.930;2023-04-15T10:48:48;15.60;95.00
13256;DHT22;37913;48.370;10.930;2023-04-15T10:51:26;14.50;96.20
13256;DHT22;37913;48.370;10.930;2023-04-15T10:53:56;13.60;98.30
13256;DHT22;37913;48.370;10.930;2023-04-15T10:56:24;12.70;99.90
13256;DHT22;37913;48.370;10.930;2023-04-15T10:58:51;11.70;99.90
13256;DHT22;37913;48.370;10.930;2023-04-15T11:01:19;11.10;99.90
13256;DHT22;37913;48.370;10.930;2023-04-15T11:03:48;10.90;99.90
13256;DHT22;37913;48.370;10.930;2023-04-15T11:06:18;10.60;99.90
13256;DHT22;37913;48.370;10.930;2023-04-15T11:08:59;10.70;99.90
13256;DHT22;37913;48.370;10.930;2023-04-15T11:12:04;11.00;99.90
13256;DHT22;37913;48.370;10.930;2023-04-15T11:14:33;11.50;99.90
13256;DHT22;37913;48.370;10.930;2023-04-15T11:17:00;12.20;99.90
13256;DHT22;37913;48.370;10.930;2023-04-15T11:19:35;12.80;99.50
13256;DHT22;37913;48.370;10.930;2023-04-15T11:22:07;13.50;97.60
13256;DHT22;37913;48.370;10.930;2023-04-15T11:24:35;14.10;95.70
13256;DHT22;37913;48.370;10.930;2023-04-15T11:27:02;14.20;92.10
13256;DHT22;37913;48.370;10.930;2023-04-15T11:29:29;14.10;90.90
13256;DHT22;37913;48.370;10.930;2023-04-15T11:32:07;13.80;90.40
13256;DHT22;37913;48.370;10.930;2023-04-15T11:34:34;13.70;90.50
13256;DHT22;37913;48.370;10.930;2023-04-15T11:37:03;14.00;89.50
13256;DHT22;37913;48.370;10.930;2023-04-15T11:39:31;13.80;90.20
13256;DHT22;37913;48.370;10.930;2023-04-15T11:41:58;14.00;90.00
13256;DHT22;37913;48.370;10.930;2023-04-15T11:44:25;14.10;90.60
13256;DHT22;37913;48.370;10.930;2023-04-15T11:46:53;14.00;88.90
13256;DHT22;37913;48.370;10.930;2023-04-15T11:49:28;13.80;87.80
13256;DHT22;37913;48.370;10.930;2023-04-15T11:51:56;13.60;86.90
13256;DHT22;37913;48.370;10.930;2023-04-15T11:54:23;13.80;88.10
13256;DHT22;37913;48.370;10.930;2023-04-15T11:56:50;13.90;88.70
13256;DHT22;37913;48.370;10.930;2023-04-15T11:59:18;13.90;87.60
13256;DHT22;37913;48.370;10.930;2023-04-15T12:01:45;13.90;88.70
13256;DHT22;37913;48.370;10.930;2023-04-15T12:04:13;13.90;89.00
13256;DHT22;37913;48.370;10.930;2023-04-15T12:06:43;13.80;90.50
13256;DHT22;37913;48.370;10.930;2023-04-15T12:09:11;13.60;90.80
13256;DHT22;37913;48.370;10.930;2023-04-15T12:11:40;13.30;91.30
13256;DHT22;37913;48.370;10.930;2023-04-15T12:14:10;13.30;91.70
13256;DHT22;37913;48.370;10.930;2023-04-15T12:16:39;13.20;92.90
13256;DHT22;37913;48.370;10.930;2023-04-15T12:19:09;13.20;93.90
13256;DHT22;37913;48.370;10.930;2023-04-15T12:21:38;13.00;94.30
13256;DHT22;37913;48.370;10.930;2023-04-15T12:24:08;13.00;94.20
13256;DHT22;37913;48.370;10.930;2023-04-15T12:26:40;12.90;94.30
13256;DHT22;37913;48.370;10.930;2023-04-15T12:29:10;12.80;94.50
13256;DHT22;37913;48.370;10.930;2023-04-15T12:31:46;12.70;94.70
13256;DHT22;37913;48.370;10.930;2023-04-15T12:34:14;12.40;95.00
13256;DHT22;37913;48.370;10.930;2023-04-15T12:36:41;12.20;95.40
13256;DHT22;37913;48.370;10.930;2023-04-15T12:39:09;11.90;96.00
13256;DHT22;37913;48.370;10.930;2023-04-15T12:41:36;11.80;97.60
13256;DHT22;37913;48.370;10.930;2023-04-15T12:44:03;11.70;98.00
13256;DHT22;37913;48.370;10.930;2023-04-15T12:46:31;11.50;98.70
13256;DHT22;37913;48.370;10.930;2023-04-15T12:48:58;11.50;99.20
13256;DHT22;37913;48.370;10.930;2023-04-15T12:51:24;11.50;99.90
13256;DHT22;37913;48.370;10.930;2023-04-15T12:53:52;11.40;99.80
13256;DHT22;37913;48.370;10.930;2023-04-15T12:56:21;11.50;99.90
13256;DHT22;37913;48.370;10.930;2023-04-15T12:58:48;11.60;99.70
13256;DHT22;37913;48.370;10.930;2023-04-15T13:01:15;11.90;99.50
13256;DHT22;37913;48.370;10.930;2023-04-15T13:03:43;12.00;99.20
13256;DHT22;37913;48.370;10.930;2023-04-15T13:06:10;12.00;99.00
13256;DHT22;37913;48.370;10.930;2023-04-15T13:08:36;12.00;98.80
13256;DHT22;37913;48.370;10.930;2023-04-15T13:11:03;12.20;98.20
13256;DHT22;37913;48.370;10.930;2023-04-15T13:13:32;12.20;98.50
13256;DHT22;37913;48.370;10.930;2023-04-15T13:15:59;12.20;97.80
13256;DHT22;37913;48.370;10.930;2023-04-15T13:18:26;12.30;98.30
13256;DHT22;37913;48.370;10.930;2023-04-15T13:20:53;12.20;97.50
13256;DHT22;37913;48.370;10.930;2023-04-15T13:23:21;12.30;97.70
13256;DHT22;37913;48.370;10.930;2023-04-15T13:25:47;12.20;96.90
13256;DHT22;37913;48.370;10.930;2023-04-15T13:28:14;12.10;96.30
13256;DHT22;37913;48.370;10.930;2023-04-15T13:30:42;11.90;95.70
13256;DHT22;37913;48.370;10.930;2023-04-15T13:33:10;12.00;96.00
13256;DHT22;37913;48.370;10.930;2023-04-15T13:35:38;12.00;97.30
13256;DHT22;37913;48.370;10.930;2023-04-15T13:38:05;11.80;96.50
13256;DHT22;37913;48.370;10.930;2023-04-15T13:40:32;11.70;97.40
13256;DHT22;37913;48.370;10.930;2023-04-15T13:43:01;11.50;98.00
13256;DHT22;37913;48.370;10.930;2023-04-15T13:45:29;11.40;98.60
13256;DHT22;37913;48.370;10.930;2023-04-15T13:47:57;11.30;98.80
13256;DHT22;37913;48.370;10.930;2023-04-15T13:50:24;11.20;99.20
13256;DHT22;37913;48.370;10.930;2023-04-15T13:52:51;11.10;99.40
13256;DHT22;37913;48.370;10.930;2023-04-15T13:55:18;11.00;99.90
13256;DHT22;37913;48.370;10.930;2023-04-15T13:57:45;11.00;99.90
13256;DHT22;37913;48.370;10.930;2023-04-15T14:00:13;10.90;99.90
13256;DHT22;37913;48.370;10.930;2023-04-15T14:02:40;10.90;99.90
13256;DHT22;37913;48.370;10.930;2023-04-15T14:05:09;10.90;99.90
13256;DHT22;37913;48.370;10.930;2023-04-15T14:07:36;10.90;99.90
13256;DHT22;37913;48.370;10.930;2023-04-15T14:10:04;10.90;99.90
13256;DHT22;37913;48.370;10.930;2023-04-15T14:12:31;10.80;99.90
13256;DHT22;37913;48.370;10.930;2023-04-15T14:14:58;10.70;99.90
13256;DHT22;37913;48.370;10.930;2023-04-15T14:17:25;10.60;99.90
13256;DHT22;37913;48.370;10.930;2023-04-15T14:19:52;10.40;99.90
13256;DHT22;37913;48.370;10.930;2023-04-15T14:22:20;10.40;99.90
13256;DHT22;37913;48.370;10.930;2023-04-15T14:24:47;10.30;99.90
13256;DHT22;37913;48.370;10.930;2023-04-15T14:27:14;10.30;99.90
13256;DHT22;37913;48.370;10.930;2023-04-15T14:29:41;10.20;99.90
13256;DHT22;37913;48.370;10.930;2023-04-15T14:32:08;10.20;99.90
13256;DHT22;37913;48.370;10.930;2023-04-15T14:34:35;10.00;99.90
13256;DHT22;37913;48.370;10.930;2023-04-15T14:37:02;10.10;99.90
13256;DHT22;37913;48.370;10.930;2023-04-15T14:39:31;10.20;99.90
13256;DHT22;37913;48.370;10.930;2023-04-15T14:41:57;10.10;99.90
13256;DHT22;37913;48.370;10.930;2023-04-15T14:44:24;10.20;99.90
13256;DHT22;37913;48.370;10.930;2023-04-15T14:46:51;10.10;99.90
13256;DHT22;37913;48.370;10.930;2023-04-15T14:49:19;10.00;99.90
13256;DHT22;37913;48.370;10.930;2023-04-15T14:51:46;9.90;99.90
13256;DHT22;37913;48.370;10.930;2023-04-15T14:54:21;9.90;99.90
13256;DHT22;37913;48.370;10.930;2023-04-15T14:56:50;10.00;99.90
13256;DHT22;37913;48.370;10.930;2023-04-15T14:59:17;10.00;99.90
13256;DHT22;37913;48.370;10.930;2023-04-15T15:01:44;10.00;99.90
13256;DHT22;37913;48.370;10.930;2023-04-15T15:04:11;9.90;99.90
13256;DHT22;37913;48.370;10.930;2023-04-15T15:06:38;9.90;99.90
13256;DHT22;37913;48.370;10.930;2023-04-15T15:09:08;9.90;99.90
13256;DHT22;37913;48.370;10.930;2023-04-15T15:11:35;9.90;99.90
13256;DHT22;37913;48.370;10.930;2023-04-15T15:14:03;9.90;99.90
13256;DHT22;37913;48.370;10.930;2023-04-15T15:16:31;9.80;99.90
13256;DHT22;37913;48.370;10.930;2023-04-15T15:18:58;9.80;99.90
13256;DHT22;37913;48.370;10.930;2023-04-15T15:21:25;9.80;99.90
13256;DHT22;37913;48.370;10.930;2023-04-15T15:23:52;9.60;99.90
13256;DHT22;37913;48.370;10.930;2023-04-15T15:26:19;9.50;99.90
13256;DHT22;37913;48.370;10.930;2023-04-15T15:28:46;9.40;99.90
13256;DHT22;37913;48.370;10.930;2023-04-15T15:31:16;9.30;99.90